sensor_id;sensor_type;location;lat;lon;timestamp;temperature;humidity
35523;DHT22;61478;50.820;4.330;2022-10-31T00:00:22;16.40;99.90
35523;DHT22;61478;50.820;4.330;2022-10-31T00:02:48;16.60;99.90
35523;DHT22;61478;50.820;4.330;2022-10-31T00:05:14;16.60;99.90
35523;DHT22;61478;50.820;4.330;2022-10-31T00:07:39;16.50;99.90
35523;DHT22;61478;50.820;4.330;2022-10-31T00:10:06;16.40;99.90
35523;DHT22;61478;50.820;4.330;2022-10-31T00:12:32;16.20;99.90
35523;DHT22;61478;50.820;4.330;2022-10-31T00:14:58;15.70;99.90
35523;DHT22;61478;50.820;4.330;2022-10-31T00:17:24;15.50;99.90
35523;DHT22;61478;50.820;4.330;2022-10-31T00:19:50;15.60;99.90
35523;DHT22;61478;50.820;4.330;2022-10-31T00:22:15;15.50;99.90
35523;DHT22;61478;50.820;4.330;2022-10-31T00:24:41;15.30;99.90
35523;DHT22;61478;50.820;4.330;2022-10-31T00:27:07;15.30;99.90
35523;DHT22;61478;50.820;4.330;2022-10-31T00:29:33;15.20;99.90
35523;DHT22;61478;50.820;4.330;2022-10-31T00:31:59;15.30;99.90
35523;DHT22;61478;50.820;4.330;2022-10-31T00:34:25;15.50;99.90
35523;DHT22;61478;50.820;4.330;2022-10-31T00:36:51;15.60;99.90
35523;DHT22;61478;50.820;4.330;2022-10-31T00:39:17;15.60;99.90
35523;DHT22;61478;50.820;4.330;2022-10-31T00:41:42;15.70;99.90
35523;DHT22;61478;50.820;4.330;2022-10-31T00:44:08;15.60;99.90
35523;DHT22;61478;50.820;4.330;2022-10-31T00:46:34;15.60;99.90
35523;DHT22;61478;50.820;4.330;2022-10-31T00:49:00;15.30;99.90
35523;DHT22;61478;50.820;4.330;2022-10-31T00:51:26;15.20;99.90
35523;DHT22;61478;50.820;4.330;2022-10-31T00:53:51;15.10;99.90
35523;DHT22;61478;50.820;4.330;2022-10-31T00:56:17;15.10;99.90
35523;DHT22;61478;50.820;4.330;2022-10-31T00:58:44;15.10;99.90
35523;DHT22;61478;50.820;4.330;2022-10-31T01:01:10;15.00;99.90
35523;DHT22;61478;50.820;4.330;2022-10-31T01:03:36;15.00;99.90
35523;DHT22;61478;50.820;4.330;2022-10-31T01:06:07;15.20;99.90
35523;DHT22;61478;50.820;4.330;2022-10-31T01:08:34;15.20;99.90
35523;DHT22;61478;50.820;4.330;2022-10-31T01:11:04;15.50;99.90
35523;DHT22;61478;50.820;4.330;2022-10-31T01:13:31;15.60;99.90
35523;DHT22;61478;50.820;4.330;2022-10-31T01:15:58;15.60;99.90
35523;DHT22;61478;50.820;4.330;2022-10-31T01:18:24;15.40;99.90
35523;DHT22;61478;50.820;4.330;2022-10-31T01:21:09;15.20;99.90
35523;DHT22;61478;50.820;4.330;2022-10-31T01:23:36;15.10;99.90
35523;DHT22;61478;50.820;4.330;2022-10-31T01:26:14;15.10;99.90
35523;DHT22;61478;50.820;4.330;2022-10-31T01:28:53;15.20;99.90
35523;DHT22;61478;50.820;4.330;2022-10-31T01:31:21;15.30;99.90
35523;DHT22;61478;50.820;4.330;2022-10-31T01:33:47;15.40;99.90
35523;DHT22;61478;50.820;4.330;2022-10-31T01:36:19;15.60;99.90
35523;DHT22;61478;50.820;4.330;2022-10-31T01:38:46;15.80;99.90
35523;DHT22;61478;50.820;4.330;2022-10-31T01:41:15;16.00;99.90
35523;DHT22;61478;50.820;4.330;2022-10-31T01:46:57;16.10;99.90
35523;DHT22;61478;50.820;4.330;2022-10-31T01:55:03;15.80;99.90
35523;DHT22;61478;50.820;4.330;2022-10-31T01:57:32;15.70;99.90
35523;DHT22;61478;50.820;4.330;2022-10-31T02:00:03;15.60;99.90
35523;DHT22;61478;50.820;4.330;2022-10-31T02:02:30;15.70;99.90
35523;DHT22;61478;50.820;4.330;2022-10-31T02:04:59;15.70;99.90
35523;DHT22;61478;50.820;4.330;2022-10-31T02:07:42;15.70;99.90
35523;DHT22;61478;50.820;4.330;2022-10-31T02:10:09;15.50;99.90
35523;DHT22;61478;50.820;4.330;2022-10-31T02:12:35;15.60;99.90
35523;DHT22;61478;50.820;4.330;2022-10-31T02:15:05;15.70;99.90
35523;DHT22;61478;50.820;4.330;2022-10-31T02:17:31;15.70;99.90
35523;DHT22;61478;50.820;4.330;2022-10-31T02:26:03;15.90;99.90
35523;DHT22;61478;50.820;4.330;2022-10-31T02:39:34;15.80;99.90
35523;DHT22;61478;50.820;4.330;2022-10-31T02:42:09;15.70;99.90
35523;DHT22;61478;50.820;4.330;2022-10-31T02:47:26;15.50;99.90
35523;DHT22;61478;50.820;4.330;2022-10-31T02:50:10;15.60;99.90
35523;DHT22;61478;50.820;4.330;2022-10-31T02:52:36;15.60;99.90
35523;DHT22;61478;50.820;4.330;2022-10-31T02:58:15;15.70;99.90
35523;DHT22;61478;50.820;4.330;2022-10-31T03:04:06;15.90;99.90
35523;DHT22;61478;50.820;4.330;2022-10-31T03:09:59;15.80;99.90
35523;DHT22;61478;50.820;4.330;2022-10-31T03:12:40;15.70;99.90
35523;DHT22;61478;50.820;4.330;2022-10-31T03:15:40;15.80;99.90
35523;DHT22;61478;50.820;4.330;2022-10-31T03:18:22;15.70;99.90
35523;DHT22;61478;50.820;4.330;2022-10-31T03:23:24;15.70;99.90
35523;DHT22;61478;50.820;4.330;2022-10-31T03:25:54;15.60;99.90
35523;DHT22;61478;50.820;4.330;2022-10-31T03:28:26;15.60;99.90
35523;DHT22;61478;50.820;4.330;2022-10-31T03:30:53;15.60;99.90
35523;DHT22;61478;50.820;4.330;2022-10-31T03:33:26;15.40;99.90
35523;DHT22;61478;50.820;4.330;2022-10-31T03:35:55;15.40;99.90
35523;DHT22;61478;50.820;4.330;2022-10-31T03:38:23;15.30;99.90
35523;DHT22;61478;50.820;4.330;2022-10-31T03:40:51;15.30;99.90
35523;DHT22;61478;50.820;4.330;2022-10-31T03:43:24;15.30;99.90
35523;DHT22;61478;50.820;4.330;2022-10-31T03:45:51;15.30;99.90
35523;DHT22;61478;50.820;4.330;2022-10-31T03:48:19;15.00;99.90
35523;DHT22;61478;50.820;4.330;2022-10-31T03:53:54;15.00;99.90
35523;DHT22;61478;50.820;4.330;2022-10-31T03:56:48;15.10;99.90
35523;DHT22;61478;50.820;4.330;2022-10-31T04:01:51;15.30;99.90
35523;DHT22;61478;50.820;4.330;2022-10-31T04:04:19;15.30;99.90
35523;DHT22;61478;50.820;4.330;2022-10-31T04:06:46;15.40;99.90
35523;DHT22;61478;50.820;4.330;2022-10-31T04:09:13;15.70;99.90
35523;DHT22;61478;50.820;4.330;2022-10-31T04:11:51;15.70;99.90
35523;DHT22;61478;50.820;4.330;2022-10-31T04:14:18;15.50;99.90
35523;DHT22;61478;50.820;4.330;2022-10-31T04:16:44;15.50;99.90
35523;DHT22;61478;50.820;4.330;2022-10-31T04:19:11;15.40;99.90
35523;DHT22;61478;50.820;4.330;2022-10-31T04:21:37;15.40;99.90
35523;DHT22;61478;50.820;4.330;2022-10-31T04:24:03;15.20;99.90
35523;DHT22;61478;50.820;4.330;2022-10-31T04:26:29;15.20;99.90
35523;DHT22;61478;50.820;4.330;2022-10-31T04:28:55;15.30;99.90
35523;DHT22;61478;50.820;4.330;2022-10-31T04:31:20;15.30;99.90
35523;DHT22;61478;50.820;4.330;2022-10-31T04:33:47;15.40;99.90
35523;DHT22;61478;50.820;4.330;2022-10-31T04:36:13;15.30;99.90
35523;DHT22;61478;50.820;4.330;2022-10-31T04:38:39;15.10;99.90
35523;DHT22;61478;50.820;4.330;2022-10-31T04:41:05;14.90;99.90
35523;DHT22;61478;50.820;4.330;2022-10-31T04:43:31;14.90;99.90
35523;DHT22;61478;50.820;4.330;2022-10-31T04:45:57;15.00;99.90
35523;DHT22;61478;50.820;4.330;2022-10-31T04:48:23;15.10;99.90
35523;DHT22;61478;50.820;4.330;2022-10-31T04:50:48;15.10;99.90
35523;DHT22;61478;50.820;4.330;2022-10-31T04:53:14;15.10;99.90
35523;DHT22;61478;50.820;4.330;2022-10-31T04:55:40;15.00;99.90
35523;DHT22;61478;50.820;4.330;2022-10-31T04:58:06;14.90;99.90
35523;DHT22;61478;50.820;4.330;2022-10-31T05:00:33;14.90;99.90
35523;DHT22;61478;50.820;4.330;2022-10-31T05:02:59;15.00;99.90
35523;DHT22;61478;50.820;4.330;2022-10-31T05:05:27;15.10;99.90
35523;DHT22;61478;50.820;4.330;2022-10-31T05:07:53;15.10;99.90
35523;DHT22;61478;50.820;4.330;2022-10-31T05:10:25;15.00;99.90
35523;DHT22;61478;50.820;4.330;2022-10-31T05:12:53;14.80;99.90
35523;DHT22;61478;50.820;4.330;2022-10-31T05:15:21;14.80;99.90
35523;DHT22;61478;50.820;4.330;2022-10-31T05:17:47;14.90;99.90
35523;DHT22;61478;50.820;4.330;2022-10-31T05:20:15;14.80;99.90
35523;DHT22;61478;50.820;4.330;2022-10-31T05:22:46;14.90;99.90
35523;DHT22;61478;50.820;4.330;2022-10-31T05:25:12;14.90;99.90
35523;DHT22;61478;50.820;4.330;2022-10-31T05:27:43;14.90;99.90
35523;DHT22;61478;50.820;4.330;2022-10-31T05:30:10;15.00;99.90
35523;DHT22;61478;50.820;4.330;2022-10-31T05:32:47;15.10;99.90
35523;DHT22;61478;50.820;4.330;2022-10-31T05:35:17;15.10;99.90
35523;DHT22;61478;50.820;4.330;2022-10-31T05:37:43;15.10;99.90
35523;DHT22;61478;50.820;4.330;2022-10-31T05:40:11;15.00;99.90
35523;DHT22;61478;50.820;4.330;2022-10-31T05:42:39;14.80;99.90
35523;DHT22;61478;50.820;4.330;2022-10-31T05:45:06;14.90;99.90
35523;DHT22;61478;50.820;4.330;2022-10-31T05:47:33;14.60;99.90
35523;DHT22;61478;50.820;4.330;2022-10-31T05:49:58;14.40;99.90
35523;DHT22;61478;50.820;4.330;2022-10-31T05:52:24;14.40;99.90
35523;DHT22;61478;50.820;4.330;2022-10-31T05:54:50;14.30;99.90
35523;DHT22;61478;50.820;4.330;2022-10-31T05:57:16;14.40;99.90
35523;DHT22;61478;50.820;4.330;2022-10-31T05:59:42;14.30;99.90
35523;DHT22;61478;50.820;4.330;2022-10-31T06:02:08;14.50;99.90
35523;DHT22;61478;50.820;4.330;2022-10-31T06:04:33;14.50;99.90
35523;DHT22;61478;50.820;4.330;2022-10-31T06:06:59;14.70;99.90
35523;DHT22;61478;50.820;4.330;2022-10-31T06:09:25;14.60;99.90
35523;DHT22;61478;50.820;4.330;2022-10-31T06:11:51;14.60;99.90
35523;DHT22;61478;50.820;4.330;2022-10-31T06:14:17;14.70;99.90
35523;DHT22;61478;50.820;4.330;2022-10-31T06:16:43;14.70;99.90
35523;DHT22;61478;50.820;4.330;2022-10-31T06:19:08;14.80;99.90
35523;DHT22;61478;50.820;4.330;2022-10-31T06:21:34;14.80;99.90
35523;DHT22;61478;50.820;4.330;2022-10-31T06:24:00;15.00;99.90
35523;DHT22;61478;50.820;4.330;2022-10-31T06:26:26;15.00;99.90
35523;DHT22;61478;50.820;4.330;2022-10-31T06:28:52;15.10;99.90
35523;DHT22;61478;50.820;4.330;2022-10-31T06:31:18;15.10;99.90
35523;DHT22;61478;50.820;4.330;2022-10-31T06:33:43;15.10;99.90
35523;DHT22;61478;50.820;4.330;2022-10-31T06:36:10;15.00;99.90
35523;DHT22;61478;50.820;4.330;2022-10-31T06:38:36;14.90;99.90
35523;DHT22;61478;50.820;4.330;2022-10-31T06:41:03;14.90;99.90
35523;DHT22;61478;50.820;4.330;2022-10-31T06:43:29;15.00;99.90
35523;DHT22;61478;50.820;4.330;2022-10-31T06:45:56;15.10;99.90
35523;DHT22;61478;50.820;4.330;2022-10-31T06:48:22;15.20;99.90
35523;DHT22;61478;50.820;4.330;2022-10-31T06:50:48;15.20;99.90
35523;DHT22;61478;50.820;4.330;2022-10-31T06:53:14;15.20;99.90
35523;DHT22;61478;50.820;4.330;2022-10-31T06:55:41;15.30;99.90
35523;DHT22;61478;50.820;4.330;2022-10-31T06:58:09;15.40;99.90
35523;DHT22;61478;50.820;4.330;2022-10-31T07:00:35;15.40;99.90
35523;DHT22;61478;50.820;4.330;2022-10-31T07:03:04;15.40;99.90
35523;DHT22;61478;50.820;4.330;2022-10-31T07:05:30;15.30;99.90
35523;DHT22;61478;50.820;4.330;2022-10-31T07:07:58;15.20;99.90
35523;DHT22;61478;50.820;4.330;2022-10-31T07:10:25;15.30;99.90
35523;DHT22;61478;50.820;4.330;2022-10-31T07:12:59;15.30;99.90
35523;DHT22;61478;50.820;4.330;2022-10-31T07:15:27;15.30;99.90
35523;DHT22;61478;50.820;4.330;2022-10-31T07:17:53;15.50;99.90
35523;DHT22;61478;50.820;4.330;2022-10-31T07:20:19;15.50;99.90
35523;DHT22;61478;50.820;4.330;2022-10-31T07:22:45;15.40;99.90
35523;DHT22;61478;50.820;4.330;2022-10-31T07:25:11;15.40;99.90
35523;DHT22;61478;50.820;4.330;2022-10-31T07:27:41;15.40;99.90
35523;DHT22;61478;50.820;4.330;2022-10-31T07:30:10;15.30;99.90
35523;DHT22;61478;50.820;4.330;2022-10-31T07:32:40;15.20;99.90
35523;DHT22;61478;50.820;4.330;2022-10-31T07:35:08;15.20;99.90
35523;DHT22;61478;50.820;4.330;2022-10-31T07:37:35;15.20;99.90
35523;DHT22;61478;50.820;4.330;2022-10-31T07:40:02;15.10;99.90
35523;DHT22;61478;50.820;4.330;2022-10-31T07:42:28;15.10;99.90
35523;DHT22;61478;50.820;4.330;2022-10-31T07:44:54;15.10;99.90
35523;DHT22;61478;50.820;4.330;2022-10-31T07:47:20;15.20;99.90
35523;DHT22;61478;50.820;4.330;2022-10-31T07:49:46;15.30;99.90
35523;DHT22;61478;50.820;4.330;2022-10-31T07:52:12;15.30;99.90
35523;DHT22;61478;50.820;4.330;2022-10-31T07:54:37;15.40;99.90
35523;DHT22;61478;50.820;4.330;2022-10-31T07:57:03;15.70;99.90
35523;DHT22;61478;50.820;4.330;2022-10-31T07:59:29;15.80;99.90
35523;DHT22;61478;50.820;4.330;2022-10-31T08:01:55;15.90;99.90
35523;DHT22;61478;50.820;4.330;2022-10-31T08:04:22;16.10;99.90
35523;DHT22;61478;50.820;4.330;2022-10-31T08:06:48;16.30;99.90
35523;DHT22;61478;50.820;4.330;2022-10-31T08:09:14;16.50;99.90
35523;DHT22;61478;50.820;4.330;2022-10-31T08:11:40;16.50;99.90
35523;DHT22;61478;50.820;4.330;2022-10-31T08:14:06;16.30;99.90
35523;DHT22;61478;50.820;4.330;2022-10-31T08:16:32;16.30;99.90
35523;DHT22;61478;50.820;4.330;2022-10-31T08:18:58;16.30;99.90
35523;DHT22;61478;50.820;4.330;2022-10-31T08:21:23;16.40;99.90
35523;DHT22;61478;50.820;4.330;2022-10-31T08:23:49;16.50;99.90
35523;DHT22;61478;50.820;4.330;2022-10-31T08:26:15;16.50;99.90
35523;DHT22;61478;50.820;4.330;2022-10-31T08:28:41;16.50;99.90
35523;DHT22;61478;50.820;4.330;2022-10-31T08:31:07;16.50;99.90
35523;DHT22;61478;50.820;4.330;2022-10-31T08:33:33;16.40;99.90
35523;DHT22;61478;50.820;4.330;2022-10-31T08:35:59;16.50;99.90
35523;DHT22;61478;50.820;4.330;2022-10-31T08:38:24;16.60;99.90
35523;DHT22;61478;50.820;4.330;2022-10-31T08:40:50;16.70;99.90
35523;DHT22;61478;50.820;4.330;2022-10-31T08:43:17;16.80;99.90
35523;DHT22;61478;50.820;4.330;2022-10-31T08:45:47;16.90;99.90
35523;DHT22;61478;50.820;4.330;2022-10-31T08:48:15;17.00;99.90
35523;DHT22;61478;50.820;4.330;2022-10-31T08:50:42;16.80;99.90
35523;DHT22;61478;50.820;4.330;2022-10-31T08:53:13;16.70;99.90
35523;DHT22;61478;50.820;4.330;2022-10-31T08:55:40;16.50;99.90
35523;DHT22;61478;50.820;4.330;2022-10-31T08:58:15;16.30;99.90
35523;DHT22;61478;50.820;4.330;2022-10-31T09:00:41;16.50;99.90
35523;DHT22;61478;50.820;4.330;2022-10-31T09:03:13;16.40;99.90
35523;DHT22;61478;50.820;4.330;2022-10-31T09:05:39;16.40;99.90
35523;DHT22;61478;50.820;4.330;2022-10-31T09:08:07;16.50;99.90
35523;DHT22;61478;50.820;4.330;2022-10-31T09:10:35;16.60;99.90
35523;DHT22;61478;50.820;4.330;2022-10-31T09:13:04;16.80;99.90
35523;DHT22;61478;50.820;4.330;2022-10-31T09:15:34;17.00;99.90
35523;DHT22;61478;50.820;4.330;2022-10-31T09:18:00;17.10;99.90
35523;DHT22;61478;50.820;4.330;2022-10-31T09:20:27;17.20;99.90
35523;DHT22;61478;50.820;4.330;2022-10-31T09:22:57;17.30;99.90
35523;DHT22;61478;50.820;4.330;2022-10-31T09:25:23;17.30;99.90
35523;DHT22;61478;50.820;4.330;2022-10-31T09:27:49;17.30;99.90
35523;DHT22;61478;50.820;4.330;2022-10-31T09:30:15;17.20;99.90
35523;DHT22;61478;50.820;4.330;2022-10-31T09:32:41;17.10;99.90
35523;DHT22;61478;50.820;4.330;2022-10-31T09:35:07;17.00;99.90
35523;DHT22;61478;50.820;4.330;2022-10-31T09:37:33;17.10;99.90
35523;DHT22;61478;50.820;4.330;2022-10-31T09:39:59;17.00;99.90
35523;DHT22;61478;50.820;4.330;2022-10-31T09:48:44;17.30;99.90
35523;DHT22;61478;50.820;4.330;2022-10-31T09:50:57;17.40;99.90
35523;DHT22;61478;50.820;4.330;2022-10-31T09:53:34;17.30;99.90
35523;DHT22;61478;50.820;4.330;2022-10-31T09:56:02;17.40;99.90
35523;DHT22;61478;50.820;4.330;2022-10-31T09:58:30;17.40;99.90
35523;DHT22;61478;50.820;4.330;2022-10-31T10:01:00;17.40;99.90
35523;DHT22;61478;50.820;4.330;2022-10-31T10:03:35;17.40;99.90
35523;DHT22;61478;50.820;4.330;2022-10-31T10:06:24;17.50;99.90
35523;DHT22;61478;50.820;4.330;2022-10-31T10:08:51;17.70;99.90
35523;DHT22;61478;50.820;4.330;2022-10-31T10:19:50;17.60;99.90
35523;DHT22;61478;50.820;4.330;2022-10-31T10:25:16;17.80;99.90
35523;DHT22;61478;50.820;4.330;2022-10-31T10:28:03;18.00;99.90
35523;DHT22;61478;50.820;4.330;2022-10-31T10:30:33;18.10;99.90
35523;DHT22;61478;50.820;4.330;2022-10-31T10:33:05;18.10;99.90
35523;DHT22;61478;50.820;4.330;2022-10-31T10:35:52;18.10;99.90
35523;DHT22;61478;50.820;4.330;2022-10-31T10:40:50;18.30;99.90
35523;DHT22;61478;50.820;4.330;2022-10-31T10:49:25;18.40;99.90
35523;DHT22;61478;50.820;4.330;2022-10-31T10:59:48;18.60;99.90
35523;DHT22;61478;50.820;4.330;2022-10-31T11:02:23;18.60;99.90
35523;DHT22;61478;50.820;4.330;2022-10-31T11:04:55;18.60;99.90
35523;DHT22;61478;50.820;4.330;2022-10-31T11:07:22;18.60;99.90
35523;DHT22;61478;50.820;4.330;2022-10-31T11:09:48;18.60;99.90
35523;DHT22;61478;50.820;4.330;2022-10-31T11:12:29;18.70;99.90
35523;DHT22;61478;50.820;4.330;2022-10-31T11:15:02;18.80;99.90
35523;DHT22;61478;50.820;4.330;2022-10-31T11:17:35;18.80;99.90
35523;DHT22;61478;50.820;4.330;2022-10-31T11:22:44;18.90;99.90
35523;DHT22;61478;50.820;4.330;2022-10-31T11:27:46;18.90;99.90
35523;DHT22;61478;50.820;4.330;2022-10-31T11:30:13;18.90;99.90
35523;DHT22;61478;50.820;4.330;2022-10-31T11:32:49;19.00;99.90
35523;DHT22;61478;50.820;4.330;2022-10-31T11:35:19;19.00;99.90
35523;DHT22;61478;50.820;4.330;2022-10-31T11:37:48;19.00;99.90
35523;DHT22;61478;50.820;4.330;2022-10-31T11:40:22;18.80;99.90
35523;DHT22;61478;50.820;4.330;2022-10-31T11:42:49;18.90;99.90
35523;DHT22;61478;50.820;4.330;2022-10-31T11:45:19;19.00;99.90
35523;DHT22;61478;50.820;4.330;2022-10-31T11:47:54;19.10;99.90
35523;DHT22;61478;50.820;4.330;2022-10-31T11:50:54;19.10;99.90
35523;DHT22;61478;50.820;4.330;2022-10-31T11:53:33;19.10;99.90
35523;DHT22;61478;50.820;4.330;2022-10-31T11:58:28;19.20;99.90
35523;DHT22;61478;50.820;4.330;2022-10-31T12:00:55;19.30;99.90
35523;DHT22;61478;50.820;4.330;2022-10-31T12:03:48;19.30;99.90
35523;DHT22;61478;50.820;4.330;2022-10-31T12:06:23;19.40;99.90
35523;DHT22;61478;50.820;4.330;2022-10-31T12:08:49;19.40;99.90
35523;DHT22;61478;50.820;4.330;2022-10-31T12:17:16;20.20;99.90
35523;DHT22;61478;50.820;4.330;2022-10-31T12:20:34;20.30;99.90
35523;DHT22;61478;50.820;4.330;2022-10-31T12:23:08;20.30;99.90
35523;DHT22;61478;50.820;4.330;2022-10-31T12:41:52;20.40;99.90
35523;DHT22;61478;50.820;4.330;2022-10-31T12:55:18;21.20;99.90
35523;DHT22;61478;50.820;4.330;2022-10-31T12:57:50;21.30;99.90
35523;DHT22;61478;50.820;4.330;2022-10-31T13:00:18;21.30;99.90
35523;DHT22;61478;50.820;4.330;2022-10-31T13:02:56;21.30;99.90
35523;DHT22;61478;50.820;4.330;2022-10-31T13:05:43;21.40;99.90
35523;DHT22;61478;50.820;4.330;2022-10-31T13:08:44;21.20;99.90
35523;DHT22;61478;50.820;4.330;2022-10-31T13:11:16;21.30;99.90
35523;DHT22;61478;50.820;4.330;2022-10-31T13:14:05;21.30;99.90
35523;DHT22;61478;50.820;4.330;2022-10-31T13:16:43;21.30;99.90
35523;DHT22;61478;50.820;4.330;2022-10-31T13:19:15;21.30;99.90
35523;DHT22;61478;50.820;4.330;2022-10-31T13:24:43;21.30;99.90
35523;DHT22;61478;50.820;4.330;2022-10-31T13:27:20;21.20;99.90
35523;DHT22;61478;50.820;4.330;2022-10-31T13:30:12;21.30;99.90
35523;DHT22;61478;50.820;4.330;2022-10-31T13:35:21;21.30;99.90
35523;DHT22;61478;50.820;4.330;2022-10-31T13:38:16;21.30;99.90
35523;DHT22;61478;50.820;4.330;2022-10-31T13:40:59;21.10;99.90
35523;DHT22;61478;50.820;4.330;2022-10-31T13:43:28;21.00;99.90
35523;DHT22;61478;50.820;4.330;2022-10-31T13:45:55;21.00;99.90
35523;DHT22;61478;50.820;4.330;2022-10-31T13:51:02;21.10;99.90
35523;DHT22;61478;50.820;4.330;2022-10-31T13:53:56;21.10;99.90
35523;DHT22;61478;50.820;4.330;2022-10-31T13:56:25;21.20;99.90
35523;DHT22;61478;50.820;4.330;2022-10-31T14:01:35;21.20;99.90
35523;DHT22;61478;50.820;4.330;2022-10-31T14:04:07;21.10;99.90
35523;DHT22;61478;50.820;4.330;2022-10-31T14:12:30;21.20;99.90
35523;DHT22;61478;50.820;4.330;2022-10-31T14:15:05;21.10;99.90
35523;DHT22;61478;50.820;4.330;2022-10-31T14:17:38;21.10;99.90
35523;DHT22;61478;50.820;4.330;2022-10-31T14:22:37;21.10;99.90
35523;DHT22;61478;50.820;4.330;2022-10-31T14:25:33;21.00;99.90
35523;DHT22;61478;50.820;4.330;2022-10-31T14:28:02;21.10;99.90
35523;DHT22;61478;50.820;4.330;2022-10-31T14:30:29;21.00;99.90
35523;DHT22;61478;50.820;4.330;2022-10-31T14:33:00;20.90;99.90
35523;DHT22;61478;50.820;4.330;2022-10-31T14:36:18;21.10;99.90
35523;DHT22;61478;50.820;4.330;2022-10-31T14:52:28;20.90;99.90
35523;DHT22;61478;50.820;4.330;2022-10-31T14:54:55;20.70;99.90
35523;DHT22;61478;50.820;4.330;2022-10-31T14:57:33;20.80;99.90
35523;DHT22;61478;50.820;4.330;2022-10-31T15:00:18;20.70;99.90
35523;DHT22;61478;50.820;4.330;2022-10-31T15:05:40;20.70;99.90
35523;DHT22;61478;50.820;4.330;2022-10-31T15:08:14;20.70;99.90
35523;DHT22;61478;50.820;4.330;2022-10-31T15:10:51;20.80;99.90
35523;DHT22;61478;50.820;4.330;2022-10-31T15:13:21;20.70;99.90
35523;DHT22;61478;50.820;4.330;2022-10-31T15:15:48;20.60;99.90
35523;DHT22;61478;50.820;4.330;2022-10-31T15:18:21;20.60;99.90
35523;DHT22;61478;50.820;4.330;2022-10-31T15:20:47;20.60;99.90
35523;DHT22;61478;50.820;4.330;2022-10-31T15:23:23;20.50;99.90
35523;DHT22;61478;50.820;4.330;2022-10-31T15:25:50;20.40;99.90
35523;DHT22;61478;50.820;4.330;2022-10-31T15:28:22;20.50;99.90
35523;DHT22;61478;50.820;4.330;2022-10-31T15:30:56;20.50;99.90
35523;DHT22;61478;50.820;4.330;2022-10-31T15:33:27;20.50;99.90
35523;DHT22;61478;50.820;4.330;2022-10-31T15:36:00;20.50;99.90
35523;DHT22;61478;50.820;4.330;2022-10-31T15:38:27;20.50;99.90
35523;DHT22;61478;50.820;4.330;2022-10-31T15:41:00;20.40;99.90
35523;DHT22;61478;50.820;4.330;2022-10-31T15:43:33;20.40;99.90
35523;DHT22;61478;50.820;4.330;2022-10-31T15:46:00;20.30;99.90
35523;DHT22;61478;50.820;4.330;2022-10-31T15:48:27;20.30;99.90
35523;DHT22;61478;50.820;4.330;2022-10-31T15:50:57;20.20;99.90
35523;DHT22;61478;50.820;4.330;2022-10-31T15:53:32;20.20;99.90
35523;DHT22;61478;50.820;4.330;2022-10-31T15:56:06;20.10;99.90
35523;DHT22;61478;50.820;4.330;2022-10-31T15:58:41;20.10;99.90
35523;DHT22;61478;50.820;4.330;2022-10-31T16:06:26;20.00;99.90
35523;DHT22;61478;50.820;4.330;2022-10-31T16:08:52;19.90;99.90
35523;DHT22;61478;50.820;4.330;2022-10-31T16:11:24;19.70;99.90
35523;DHT22;61478;50.820;4.330;2022-10-31T16:14:05;19.70;99.90
35523;DHT22;61478;50.820;4.330;2022-10-31T16:16:34;19.60;99.90
35523;DHT22;61478;50.820;4.330;2022-10-31T16:19:22;19.40;99.90
35523;DHT22;61478;50.820;4.330;2022-10-31T16:21:51;19.00;99.90
35523;DHT22;61478;50.820;4.330;2022-10-31T16:24:19;19.10;99.90
35523;DHT22;61478;50.820;4.330;2022-10-31T16:26:51;19.20;99.90
35523;DHT22;61478;50.820;4.330;2022-10-31T16:29:41;19.20;99.90
35523;DHT22;61478;50.820;4.330;2022-10-31T16:35:17;18.80;99.90
35523;DHT22;61478;50.820;4.330;2022-10-31T16:37:43;18.60;99.90
35523;DHT22;61478;50.820;4.330;2022-10-31T16:40:13;18.60;99.90
35523;DHT22;61478;50.820;4.330;2022-10-31T16:42:41;18.60;99.90
35523;DHT22;61478;50.820;4.330;2022-10-31T16:45:12;18.60;99.90
35523;DHT22;61478;50.820;4.330;2022-10-31T16:47:39;18.80;99.90
35523;DHT22;61478;50.820;4.330;2022-10-31T16:50:10;18.80;99.90
35523;DHT22;61478;50.820;4.330;2022-10-31T16:52:37;18.80;99.90
35523;DHT22;61478;50.820;4.330;2022-10-31T16:55:03;18.70;99.90
35523;DHT22;61478;50.820;4.330;2022-10-31T16:57:29;18.60;99.90
35523;DHT22;61478;50.820;4.330;2022-10-31T16:59:56;18.60;99.90
35523;DHT22;61478;50.820;4.330;2022-10-31T17:02:23;18.20;99.90
35523;DHT22;61478;50.820;4.330;2022-10-31T17:04:48;18.10;99.90
35523;DHT22;61478;50.820;4.330;2022-10-31T17:07:14;18.00;99.90
35523;DHT22;61478;50.820;4.330;2022-10-31T17:09:40;17.90;99.90
35523;DHT22;61478;50.820;4.330;2022-10-31T17:12:09;17.70;99.90
35523;DHT22;61478;50.820;4.330;2022-10-31T17:14:37;17.60;99.90
35523;DHT22;61478;50.820;4.330;2022-10-31T17:17:02;17.70;99.90
35523;DHT22;61478;50.820;4.330;2022-10-31T17:19:28;17.80;99.90
35523;DHT22;61478;50.820;4.330;2022-10-31T17:21:54;17.70;99.90
35523;DHT22;61478;50.820;4.330;2022-10-31T17:24:20;17.60;99.90
35523;DHT22;61478;50.820;4.330;2022-10-31T17:26:46;17.70;99.90
35523;DHT22;61478;50.820;4.330;2022-10-31T17:29:12;17.80;99.90
35523;DHT22;61478;50.820;4.330;2022-10-31T17:31:38;17.80;99.90
35523;DHT22;61478;50.820;4.330;2022-10-31T17:34:04;17.70;99.90
35523;DHT22;61478;50.820;4.330;2022-10-31T17:36:32;17.70;99.90
35523;DHT22;61478;50.820;4.330;2022-10-31T17:38:58;17.70;99.90
35523;DHT22;61478;50.820;4.330;2022-10-31T17:41:24;17.70;99.90
35523;DHT22;61478;50.820;4.330;2022-10-31T17:43:54;17.80;99.90
35523;DHT22;61478;50.820;4.330;2022-10-31T17:46:20;17.60;99.90
35523;DHT22;61478;50.820;4.330;2022-10-31T17:48:46;17.50;99.90
35523;DHT22;61478;50.820;4.330;2022-10-31T17:51:12;17.60;99.90
35523;DHT22;61478;50.820;4.330;2022-10-31T17:53:38;17.70;99.90
35523;DHT22;61478;50.820;4.330;2022-10-31T17:56:06;17.70;99.90
35523;DHT22;61478;50.820;4.330;2022-10-31T17:58:34;17.70;99.90
35523;DHT22;61478;50.820;4.330;2022-10-31T18:01:00;17.60;99.90
35523;DHT22;61478;50.820;4.330;2022-10-31T18:03:26;17.60;99.90
35523;DHT22;61478;50.820;4.330;2022-10-31T18:05:57;17.50;99.90
35523;DHT22;61478;50.820;4.330;2022-10-31T18:08:27;17.50;99.90
35523;DHT22;61478;50.820;4.330;2022-10-31T18:10:53;17.40;99.90
35523;DHT22;61478;50.820;4.330;2022-10-31T18:13:20;17.40;99.90
35523;DHT22;61478;50.820;4.330;2022-10-31T18:15:46;17.40;99.90
35523;DHT22;61478;50.820;4.330;2022-10-31T18:18:12;17.40;99.90
35523;DHT22;61478;50.820;4.330;2022-10-31T18:20:38;17.40;99.90
35523;DHT22;61478;50.820;4.330;2022-10-31T18:23:05;17.40;99.90
35523;DHT22;61478;50.820;4.330;2022-10-31T18:25:32;17.40;99.90
35523;DHT22;61478;50.820;4.330;2022-10-31T18:27:57;17.30;99.90
35523;DHT22;61478;50.820;4.330;2022-10-31T18:30:23;17.20;99.90